CCA4309 ZGSZ-ZHHH
Flight info
| Callsign | CCA4309 |
|---|---|
| Flight time | 1h 4m |
| Altitude | 35100 |
| Route | IDUMA1 IDUMA A461 BUBDA W56 UKLUK W616 VANPI W56 UPMAT UPMA2T |
| Aircraft | A359/M-SDE2E3FGHIJ1RWXY/LB1 |
Departure
| Time | 2026-04-26 07:00 |
|---|---|
| Airport | Shenzhen Bao'an International Airport (ZGSZ) |
Arrival
| Time | 2026-04-26 08:05 |
|---|---|
| Airport | Wuhan Tianhe International Airport (ZHHH) |
| Time | Latitude | Longitude | Altitude | Speed | Heading |
|---|---|---|---|---|---|
| 2026-04-26 06:29 | 22.63472 | 113.80689 | 24 ft | 0 kts | 143° |
| 2026-04-26 06:47 | 22.63483 | 113.80680 | 24 ft | 3 kts | 143° |
| 2026-04-26 06:47 | 22.63499 | 113.80668 | 26 ft | 3 kts | 125° |
| 2026-04-26 06:47 | 22.63507 | 113.80647 | 27 ft | 3 kts | 82° |
| 2026-04-26 06:47 | 22.63504 | 113.80634 | 27 ft | 0 kts | 60° |
| 2026-04-26 06:54 | 22.63520 | 113.80665 | 29 ft | 9 kts | 60° |
| 2026-04-26 06:54 | 22.63554 | 113.80731 | 26 ft | 11 kts | 63° |
| 2026-04-26 06:55 | 22.63594 | 113.80815 | 25 ft | 14 kts | 64° |
| 2026-04-26 06:55 | 22.63638 | 113.80919 | 27 ft | 16 kts | 66° |
| 2026-04-26 06:55 | 22.63727 | 113.80953 | 29 ft | 16 kts | 341° |
| 2026-04-26 06:55 | 22.63833 | 113.80897 | 28 ft | 18 kts | 332° |
| 2026-04-26 06:56 | 22.63952 | 113.80831 | 27 ft | 20 kts | 332° |
| 2026-04-26 06:56 | 22.64068 | 113.80767 | 28 ft | 18 kts | 333° |
| 2026-04-26 06:56 | 22.64189 | 113.80701 | 25 ft | 20 kts | 333° |
| 2026-04-26 06:56 | 22.64322 | 113.80630 | 27 ft | 22 kts | 333° |
| 2026-04-26 06:57 | 22.64466 | 113.80550 | 28 ft | 24 kts | 333° |
| 2026-04-26 06:57 | 22.64611 | 113.80469 | 25 ft | 20 kts | 333° |
| 2026-04-26 06:57 | 22.64739 | 113.80400 | 30 ft | 21 kts | 333° |
| 2026-04-26 06:57 | 22.64878 | 113.80324 | 29 ft | 21 kts | 333° |
| 2026-04-26 06:58 | 22.64992 | 113.80262 | 28 ft | 19 kts | 333° |
| 2026-04-26 06:58 | 22.65119 | 113.80193 | 30 ft | 20 kts | 333° |
| 2026-04-26 06:58 | 22.65195 | 113.80165 | 29 ft | 9 kts | 19° |
| 2026-04-26 06:58 | 22.65241 | 113.80223 | 31 ft | 11 kts | 59° |
| 2026-04-26 06:59 | 22.65269 | 113.80305 | 30 ft | 11 kts | 105° |
| 2026-04-26 06:59 | 22.65210 | 113.80362 | 26 ft | 13 kts | 150° |
| 2026-04-26 06:59 | 22.64980 | 113.80489 | 27 ft | 73 kts | 153° |
| 2026-04-26 06:59 | 22.64310 | 113.80856 | 26 ft | 140 kts | 153° |
| 2026-04-26 07:00 | 22.63304 | 113.81407 | 344 ft | 169 kts | 154° |
| 2026-04-26 07:00 | 22.62265 | 113.82000 | 1206 ft | 170 kts | 153° |
| 2026-04-26 07:00 | 22.61175 | 113.82616 | 1797 ft | 188 kts | 154° |
| 2026-04-26 07:00 | 22.59927 | 113.83283 | 2174 ft | 212 kts | 155° |
| 2026-04-26 07:01 | 22.58582 | 113.84002 | 2746 ft | 225 kts | 154° |
| 2026-04-26 07:01 | 22.57107 | 113.84801 | 3163 ft | 249 kts | 154° |
| 2026-04-26 07:01 | 22.55522 | 113.85665 | 3800 ft | 260 kts | 153° |
| 2026-04-26 07:01 | 22.53892 | 113.86556 | 4584 ft | 265 kts | 153° |
| 2026-04-26 07:02 | 22.52249 | 113.87492 | 5402 ft | 269 kts | 149° |
| 2026-04-26 07:02 | 22.50904 | 113.88911 | 6202 ft | 276 kts | 121° |
| 2026-04-26 07:02 | 22.50428 | 113.90923 | 6941 ft | 284 kts | 88° |
| 2026-04-26 07:02 | 22.50972 | 113.92976 | 7791 ft | 288 kts | 64° |
| 2026-04-26 07:03 | 22.51909 | 113.94895 | 8722 ft | 289 kts | 61° |
| 2026-04-26 07:03 | 22.52879 | 113.96821 | 9600 ft | 294 kts | 61° |
| 2026-04-26 07:03 | 22.53847 | 113.98784 | 10375 ft | 299 kts | 62° |
| 2026-04-26 07:03 | 22.54976 | 114.00694 | 11044 ft | 309 kts | 47° |
| 2026-04-26 07:04 | 22.56776 | 114.02000 | 11527 ft | 320 kts | 17° |
| 2026-04-26 07:04 | 22.58985 | 114.02395 | 12241 ft | 325 kts | 3° |
| 2026-04-26 07:04 | 22.61262 | 114.02567 | 12991 ft | 330 kts | 3° |
| 2026-04-26 07:04 | 22.63575 | 114.02758 | 13760 ft | 335 kts | 4° |
| 2026-04-26 07:05 | 22.65911 | 114.02973 | 14452 ft | 340 kts | 4° |
| 2026-04-26 07:05 | 22.68289 | 114.03190 | 15137 ft | 344 kts | 2° |
| 2026-04-26 07:05 | 22.70656 | 114.02869 | 15786 ft | 345 kts | 339° |
| 2026-04-26 07:05 | 22.72679 | 114.01519 | 16476 ft | 344 kts | 314° |
| 2026-04-26 07:06 | 22.74198 | 113.99512 | 17187 ft | 346 kts | 304° |
| 2026-04-26 07:06 | 22.75600 | 113.97411 | 17866 ft | 350 kts | 304° |
| 2026-04-26 07:06 | 22.77074 | 113.95246 | 18521 ft | 354 kts | 305° |
| 2026-04-26 07:06 | 22.78547 | 113.93139 | 19121 ft | 357 kts | 306° |
| 2026-04-26 07:07 | 22.80081 | 113.90975 | 19528 ft | 358 kts | 306° |
| 2026-04-26 07:07 | 22.81588 | 113.88869 | 19672 ft | 359 kts | 306° |
| 2026-04-26 07:07 | 22.83121 | 113.86734 | 19678 ft | 360 kts | 306° |
| 2026-04-26 07:07 | 22.84664 | 113.84590 | 19677 ft | 361 kts | 306° |
| 2026-04-26 07:08 | 22.86209 | 113.82445 | 19676 ft | 361 kts | 306° |
| 2026-04-26 07:08 | 22.87756 | 113.80298 | 19672 ft | 361 kts | 306° |
| 2026-04-26 07:08 | 22.89299 | 113.78157 | 19670 ft | 361 kts | 306° |
| 2026-04-26 07:08 | 22.90848 | 113.76011 | 19668 ft | 361 kts | 306° |
| 2026-04-26 07:09 | 22.92591 | 113.74054 | 19666 ft | 364 kts | 320° |
| 2026-04-26 07:09 | 22.94676 | 113.72487 | 19658 ft | 365 kts | 326° |
| 2026-04-26 07:09 | 22.96884 | 113.71132 | 19654 ft | 365 kts | 330° |
| 2026-04-26 07:09 | 22.99149 | 113.69875 | 19652 ft | 366 kts | 331° |
| 2026-04-26 07:10 | 23.05964 | 113.66149 | 19655 ft | 366 kts | 330° |
| 2026-04-26 07:11 | 23.10486 | 113.63567 | 19792 ft | 372 kts | 330° |
| 2026-04-26 07:11 | 23.12813 | 113.62240 | 20062 ft | 384 kts | 332° |
| 2026-04-26 07:11 | 23.15343 | 113.61236 | 20598 ft | 391 kts | 342° |
| 2026-04-26 07:11 | 23.17999 | 113.60517 | 21195 ft | 395 kts | 345° |
| 2026-04-26 07:12 | 23.20716 | 113.59921 | 21800 ft | 400 kts | 347° |
| 2026-04-26 07:12 | 23.23461 | 113.59398 | 22411 ft | 403 kts | 348° |
| 2026-04-26 07:12 | 23.26244 | 113.58902 | 23032 ft | 407 kts | 348° |
| 2026-04-26 07:12 | 23.29042 | 113.58408 | 23650 ft | 410 kts | 348° |
| 2026-04-26 07:13 | 23.31872 | 113.57903 | 24167 ft | 413 kts | 348° |
| 2026-04-26 07:13 | 23.34721 | 113.57386 | 24689 ft | 417 kts | 347° |
| 2026-04-26 07:13 | 23.37586 | 113.56857 | 25209 ft | 420 kts | 347° |
| 2026-04-26 07:13 | 23.40480 | 113.56317 | 25727 ft | 423 kts | 347° |
| 2026-04-26 07:14 | 23.43396 | 113.55770 | 26264 ft | 426 kts | 347° |
| 2026-04-26 07:14 | 23.46328 | 113.55219 | 26772 ft | 429 kts | 347° |
| 2026-04-26 07:14 | 23.49289 | 113.54662 | 27285 ft | 433 kts | 347° |
| 2026-04-26 07:14 | 23.52273 | 113.54101 | 27788 ft | 436 kts | 347° |
| 2026-04-26 07:15 | 23.55276 | 113.53536 | 28277 ft | 440 kts | 348° |
| 2026-04-26 07:15 | 23.58301 | 113.52967 | 28772 ft | 443 kts | 348° |
| 2026-04-26 07:15 | 23.61345 | 113.52395 | 29240 ft | 446 kts | 348° |
| 2026-04-26 07:15 | 23.64412 | 113.51818 | 29706 ft | 449 kts | 348° |
| 2026-04-26 07:16 | 23.67260 | 113.51282 | 30117 ft | 452 kts | 348° |
| 2026-04-26 07:16 | 23.70375 | 113.50696 | 30515 ft | 455 kts | 347° |
| 2026-04-26 07:16 | 23.73509 | 113.50105 | 30928 ft | 457 kts | 347° |
| 2026-04-26 07:16 | 23.76643 | 113.49514 | 31362 ft | 459 kts | 347° |
| 2026-04-26 07:17 | 23.79805 | 113.48918 | 31787 ft | 461 kts | 347° |
| 2026-04-26 07:17 | 23.82968 | 113.48321 | 32181 ft | 463 kts | 347° |
| 2026-04-26 07:17 | 23.86072 | 113.47734 | 32551 ft | 465 kts | 347° |
| 2026-04-26 07:17 | 23.89272 | 113.47130 | 32923 ft | 468 kts | 346° |
| 2026-04-26 07:18 | 23.92490 | 113.46521 | 33293 ft | 470 kts | 346° |
| 2026-04-26 07:18 | 23.95717 | 113.45911 | 33659 ft | 472 kts | 346° |
| 2026-04-26 07:18 | 23.98958 | 113.45298 | 33995 ft | 474 kts | 346° |
| 2026-04-26 07:18 | 24.02215 | 113.44682 | 34290 ft | 475 kts | 346° |
| 2026-04-26 07:19 | 24.05480 | 113.44064 | 34584 ft | 477 kts | 346° |
| 2026-04-26 07:19 | 24.08748 | 113.43445 | 34921 ft | 478 kts | 346° |
| 2026-04-26 07:19 | 24.12018 | 113.42825 | 35040 ft | 470 kts | 346° |
| 2026-04-26 07:19 | 24.15180 | 113.42233 | 35056 ft | 454 kts | 346° |
| 2026-04-26 07:20 | 24.18260 | 113.41751 | 35052 ft | 441 kts | 351° |
| 2026-04-26 07:20 | 24.24299 | 113.41659 | 35052 ft | 432 kts | 355° |
| 2026-04-26 07:21 | 24.30311 | 113.41794 | 35059 ft | 432 kts | 356° |
| 2026-04-26 07:21 | 24.36326 | 113.41980 | 35073 ft | 432 kts | 356° |
| 2026-04-26 07:22 | 24.42338 | 113.42165 | 35053 ft | 432 kts | 356° |
| 2026-04-26 07:22 | 24.48349 | 113.42341 | 35055 ft | 432 kts | 356° |
| 2026-04-26 07:23 | 24.54352 | 113.42513 | 35053 ft | 432 kts | 356° |
| 2026-04-26 07:23 | 24.60360 | 113.42685 | 35053 ft | 432 kts | 356° |
| 2026-04-26 07:24 | 24.66371 | 113.42860 | 35064 ft | 432 kts | 356° |
| 2026-04-26 07:24 | 24.72360 | 113.43027 | 35046 ft | 429 kts | 357° |
| 2026-04-26 07:25 | 24.78325 | 113.43200 | 35046 ft | 428 kts | 357° |
| 2026-04-26 07:25 | 24.84280 | 113.43372 | 35047 ft | 428 kts | 357° |
| 2026-04-26 07:26 | 24.90201 | 113.43544 | 35043 ft | 428 kts | 357° |
| 2026-04-26 07:26 | 24.96160 | 113.43717 | 35046 ft | 428 kts | 356° |
| 2026-04-26 07:27 | 25.02093 | 113.43890 | 35043 ft | 427 kts | 356° |
| 2026-04-26 07:27 | 25.08031 | 113.44061 | 35044 ft | 426 kts | 356° |
| 2026-04-26 07:28 | 25.13956 | 113.44232 | 35046 ft | 426 kts | 356° |
| 2026-04-26 07:28 | 25.19890 | 113.44404 | 35045 ft | 426 kts | 356° |
| 2026-04-26 07:29 | 25.25817 | 113.44577 | 35045 ft | 426 kts | 356° |
| 2026-04-26 07:29 | 25.31738 | 113.44753 | 35049 ft | 425 kts | 356° |
| 2026-04-26 07:30 | 25.36655 | 113.44895 | 35044 ft | 425 kts | 356° |
| 2026-04-26 07:30 | 25.42563 | 113.45065 | 35046 ft | 426 kts | 356° |
| 2026-04-26 07:30 | 25.46584 | 113.45176 | 35052 ft | 438 kts | 356° |
| 2026-04-26 07:31 | 25.48617 | 113.45232 | 35050 ft | 445 kts | 356° |
| 2026-04-26 07:31 | 25.54950 | 113.45408 | 35042 ft | 465 kts | 356° |
| 2026-04-26 07:32 | 25.61540 | 113.45599 | 35040 ft | 483 kts | 357° |
| 2026-04-26 07:32 | 25.68318 | 113.45803 | 35030 ft | 488 kts | 357° |
| 2026-04-26 07:33 | 25.75104 | 113.46011 | 35028 ft | 487 kts | 357° |
| 2026-04-26 07:33 | 25.81873 | 113.46214 | 35033 ft | 487 kts | 356° |
| 2026-04-26 07:34 | 25.88622 | 113.46415 | 35019 ft | 488 kts | 357° |
| 2026-04-26 07:34 | 25.95410 | 113.46627 | 35024 ft | 488 kts | 357° |
| 2026-04-26 07:35 | 26.02194 | 113.46839 | 35019 ft | 488 kts | 357° |
| 2026-04-26 07:35 | 26.08977 | 113.47052 | 35015 ft | 488 kts | 357° |
| 2026-04-26 07:36 | 26.15762 | 113.47265 | 35015 ft | 488 kts | 357° |
| 2026-04-26 07:36 | 26.22550 | 113.47477 | 35014 ft | 488 kts | 357° |
| 2026-04-26 07:37 | 26.29343 | 113.47690 | 35006 ft | 488 kts | 357° |
| 2026-04-26 07:37 | 26.36132 | 113.47904 | 35008 ft | 488 kts | 357° |
| 2026-04-26 07:38 | 26.42918 | 113.48117 | 35008 ft | 488 kts | 357° |
| 2026-04-26 07:38 | 26.49714 | 113.48332 | 35008 ft | 488 kts | 357° |
| 2026-04-26 07:39 | 26.56506 | 113.48546 | 35007 ft | 488 kts | 357° |
| 2026-04-26 07:39 | 26.63297 | 113.48761 | 35020 ft | 488 kts | 357° |
| 2026-04-26 07:40 | 26.70079 | 113.48976 | 35005 ft | 487 kts | 357° |
| 2026-04-26 07:40 | 26.76856 | 113.49191 | 35006 ft | 487 kts | 357° |
| 2026-04-26 07:41 | 26.83627 | 113.49406 | 35008 ft | 487 kts | 357° |
| 2026-04-26 07:41 | 26.90363 | 113.49618 | 35008 ft | 487 kts | 357° |
| 2026-04-26 07:42 | 26.97136 | 113.49834 | 35014 ft | 486 kts | 357° |
| 2026-04-26 07:42 | 27.03889 | 113.50049 | 35013 ft | 485 kts | 357° |
| 2026-04-26 07:43 | 27.10627 | 113.50264 | 35011 ft | 485 kts | 356° |
| 2026-04-26 07:43 | 27.17379 | 113.50479 | 35011 ft | 485 kts | 356° |
| 2026-04-26 07:44 | 27.24123 | 113.50695 | 35012 ft | 484 kts | 356° |
| 2026-04-26 07:44 | 27.30937 | 113.50912 | 35011 ft | 484 kts | 356° |
| 2026-04-26 07:45 | 27.57757 | 113.51773 | 35011 ft | 481 kts | 356° |
| 2026-04-26 07:45 | 27.84504 | 113.52635 | 35017 ft | 481 kts | 356° |
| 2026-04-26 07:46 | 28.11295 | 113.53501 | 35016 ft | 482 kts | 356° |
| 2026-04-26 07:46 | 28.38148 | 113.54375 | 35023 ft | 484 kts | 356° |
| 2026-04-26 07:47 | 28.64863 | 113.55250 | 35015 ft | 483 kts | 356° |
| 2026-04-26 07:47 | 28.91746 | 113.56135 | 35006 ft | 481 kts | 356° |
| 2026-04-26 07:48 | 29.18514 | 113.57018 | 35002 ft | 481 kts | 356° |
| 2026-04-26 07:48 | 29.31806 | 113.57456 | 31908 ft | 485 kts | 356° |
| 2026-04-26 07:48 | 29.45463 | 113.57911 | 28144 ft | 493 kts | 357° |
| 2026-04-26 07:48 | 29.58920 | 113.58366 | 25509 ft | 474 kts | 357° |
| 2026-04-26 07:49 | 29.71887 | 113.58801 | 22932 ft | 457 kts | 357° |
| 2026-04-26 07:49 | 29.84339 | 113.59217 | 20239 ft | 439 kts | 358° |
| 2026-04-26 07:49 | 29.92715 | 113.59632 | 19570 ft | 438 kts | 4° |
| 2026-04-26 07:50 | 29.98592 | 113.61566 | 19565 ft | 443 kts | 19° |
| 2026-04-26 07:50 | 30.01436 | 113.62968 | 19567 ft | 444 kts | 20° |
| 2026-04-26 07:50 | 30.04266 | 113.64390 | 19568 ft | 444 kts | 20° |
| 2026-04-26 07:50 | 30.07040 | 113.65979 | 19562 ft | 447 kts | 28° |
| 2026-04-26 07:51 | 30.09544 | 113.68116 | 19566 ft | 450 kts | 37° |
| 2026-04-26 07:51 | 30.11920 | 113.70489 | 19573 ft | 451 kts | 38° |
| 2026-04-26 07:51 | 30.14274 | 113.72883 | 19563 ft | 450 kts | 38° |
| 2026-04-26 07:51 | 30.16624 | 113.75270 | 19562 ft | 449 kts | 38° |
| 2026-04-26 07:52 | 30.18973 | 113.77650 | 19565 ft | 449 kts | 38° |
| 2026-04-26 07:52 | 30.21323 | 113.80028 | 19566 ft | 449 kts | 38° |
| 2026-04-26 07:52 | 30.25045 | 113.83795 | 19189 ft | 440 kts | 38° |
| 2026-04-26 07:52 | 30.34122 | 113.92990 | 16458 ft | 425 kts | 39° |
| 2026-04-26 07:53 | 30.42856 | 114.01856 | 13821 ft | 409 kts | 38° |
| 2026-04-26 07:53 | 30.51221 | 114.10366 | 11074 ft | 392 kts | 39° |
| 2026-04-26 07:53 | 30.58887 | 114.18189 | 10011 ft | 338 kts | 39° |
| 2026-04-26 07:53 | 30.65347 | 114.24804 | 9048 ft | 298 kts | 39° |
| 2026-04-26 07:54 | 30.71530 | 114.31127 | 7332 ft | 294 kts | 40° |
| 2026-04-26 07:54 | 30.76246 | 114.35955 | 6893 ft | 293 kts | 40° |
| 2026-04-26 07:54 | 30.77764 | 114.37510 | 6537 ft | 291 kts | 40° |
| 2026-04-26 07:54 | 30.79286 | 114.39068 | 6145 ft | 291 kts | 40° |
| 2026-04-26 07:55 | 30.80799 | 114.40620 | 5731 ft | 290 kts | 40° |
| 2026-04-26 07:55 | 30.82310 | 114.42172 | 5308 ft | 289 kts | 40° |
| 2026-04-26 07:55 | 30.83823 | 114.43725 | 4879 ft | 289 kts | 40° |
| 2026-04-26 07:55 | 30.85325 | 114.45270 | 4464 ft | 288 kts | 40° |
| 2026-04-26 07:56 | 30.86826 | 114.46814 | 4050 ft | 288 kts | 41° |
| 2026-04-26 07:56 | 30.88315 | 114.48351 | 3725 ft | 284 kts | 41° |
| 2026-04-26 07:56 | 30.89788 | 114.49869 | 3346 ft | 282 kts | 42° |
| 2026-04-26 07:56 | 30.91254 | 114.51378 | 3046 ft | 278 kts | 43° |
| 2026-04-26 07:57 | 30.92707 | 114.52799 | 2893 ft | 267 kts | 36° |
| 2026-04-26 07:57 | 30.94401 | 114.53541 | 2710 ft | 259 kts | 3° |
| 2026-04-26 07:57 | 30.96102 | 114.53113 | 2486 ft | 249 kts | 329° |
| 2026-04-26 07:57 | 30.97401 | 114.51844 | 2180 ft | 242 kts | 310° |
| 2026-04-26 07:58 | 30.98509 | 114.50386 | 2017 ft | 239 kts | 308° |
| 2026-04-26 07:58 | 30.99428 | 114.48786 | 1996 ft | 237 kts | 289° |
| 2026-04-26 07:58 | 30.99690 | 114.46962 | 1997 ft | 229 kts | 261° |
| 2026-04-26 07:58 | 30.99161 | 114.45227 | 1994 ft | 225 kts | 233° |
| 2026-04-26 07:59 | 30.98101 | 114.43906 | 1994 ft | 221 kts | 219° |
| 2026-04-26 07:59 | 30.96954 | 114.42751 | 1990 ft | 220 kts | 218° |
| 2026-04-26 07:59 | 30.95815 | 114.41617 | 1984 ft | 209 kts | 219° |
| 2026-04-26 07:59 | 30.94763 | 114.40553 | 2000 ft | 192 kts | 219° |
| 2026-04-26 08:00 | 30.93807 | 114.39577 | 1995 ft | 173 kts | 218° |
| 2026-04-26 08:00 | 30.92944 | 114.38699 | 1996 ft | 157 kts | 219° |
| 2026-04-26 08:00 | 30.91432 | 114.37152 | 1987 ft | 131 kts | 218° |
| 2026-04-26 08:00 | 30.88662 | 114.34348 | 1995 ft | 132 kts | 219° |
| 2026-04-26 08:01 | 30.86874 | 114.32491 | 1996 ft | 131 kts | 219° |
| 2026-04-26 08:01 | 30.86193 | 114.31788 | 1998 ft | 130 kts | 219° |
| 2026-04-26 08:01 | 30.85519 | 114.31093 | 1991 ft | 128 kts | 220° |
| 2026-04-26 08:01 | 30.84839 | 114.30390 | 1815 ft | 133 kts | 220° |
| 2026-04-26 08:02 | 30.84154 | 114.29679 | 1600 ft | 131 kts | 220° |
| 2026-04-26 08:02 | 30.83473 | 114.28977 | 1406 ft | 131 kts | 219° |
| 2026-04-26 08:02 | 30.82794 | 114.28277 | 1207 ft | 130 kts | 220° |
| 2026-04-26 08:02 | 30.82375 | 114.27841 | 1052 ft | 129 kts | 219° |
| 2026-04-26 08:03 | 30.81766 | 114.27206 | 918 ft | 129 kts | 221° |
| 2026-04-26 08:03 | 30.81105 | 114.26502 | 756 ft | 128 kts | 219° |
| 2026-04-26 08:03 | 30.80435 | 114.25792 | 626 ft | 132 kts | 220° |
| 2026-04-26 08:03 | 30.79731 | 114.25086 | 542 ft | 136 kts | 217° |
| 2026-04-26 08:04 | 30.78997 | 114.24372 | 371 ft | 137 kts | 218° |
| 2026-04-26 08:04 | 30.78288 | 114.23659 | 203 ft | 134 kts | 220° |
| 2026-04-26 08:04 | 30.77604 | 114.22963 | 115 ft | 120 kts | 222° |
| 2026-04-26 08:04 | 30.77114 | 114.22456 | 112 ft | 55 kts | 221° |
| 2026-04-26 08:05 | 30.77000 | 114.22246 | 111 ft | 27 kts | 248° |
| 2026-04-26 08:05 | 30.76982 | 114.22113 | 111 ft | 11 kts | 307° |
| 2026-04-26 08:05 | 30.77049 | 114.22051 | 109 ft | 13 kts | 318° |
| 2026-04-26 08:05 | 30.77092 | 114.22047 | 111 ft | 6 kts | 21° |
| 2026-04-26 08:06 | 30.77135 | 114.22079 | 112 ft | 9 kts | 40° |
| 2026-04-26 08:06 | 30.77188 | 114.22136 | 109 ft | 12 kts | 42° |
| 2026-04-26 08:06 | 30.77252 | 114.22183 | 111 ft | 5 kts | 356° |
| 2026-04-26 08:06 | 30.77267 | 114.22145 | 110 ft | 11 kts | 290° |
| 2026-04-26 08:07 | 30.77318 | 114.22061 | 111 ft | 14 kts | 311° |
| 2026-04-26 08:07 | 30.77389 | 114.21967 | 110 ft | 17 kts | 311° |
| 2026-04-26 08:07 | 30.77461 | 114.21872 | 112 ft | 15 kts | 311° |
| 2026-04-26 08:07 | 30.77519 | 114.21795 | 111 ft | 13 kts | 311° |
| 2026-04-26 08:08 | 30.77556 | 114.21723 | 111 ft | 4 kts | 259° |
| 2026-04-26 08:08 | 30.77536 | 114.21698 | 111 ft | 6 kts | 222° |
| 2026-04-26 08:08 | 30.77504 | 114.21665 | 112 ft | 5 kts | 222° |
| 2026-04-26 08:08 | 30.77500 | 114.21660 | 112 ft | 0 kts | 222° |